aviador You're here:

SCVD Decoded Metar

VALDIVIA in CHILE
Report Time2017-10-17 20:00:00
UTC Time2017-10-17 20:36:12
Flight Rules vfr VFR
Wind350° at 02 kt
W.Decomp.*RWY 35: 2.0 kt HW 0.3 kt LCW
W.Rank350° ranks 21
Current wind is below 350° avg. (6.5)
Visibility8000 m
Phenomena:Light Rain
Clouds:Scattered 025 Hf
Overcast 045 Hf
Expected CloudBase > 400 ft AGL from Temp-Dew spread
Ceiling4,500 ft
Temp10°C (ISA -5)
Dew Point09°C (94% RH)
AAT9.1°C
QNH1014 hPa
Density Alt-420 ft
Elevation46 ft
Report Wrong Elevation
Raw Report
SCVD 172000Z 35002KT 8000 -RA SCT025 OVC045 10/09 Q1014=

Extra information for SCVD:More info

Metar Taf Metar & Taf Last 4 Metars F.Rules Stats Wind Profile Meteogram Temp Stats Airport Information Weather charts Add Link Nearby VenuesMetar ALERT Operation Metar Decoded Social comments